Time;durP1;ratioP1;P1;durP2;ratioP2;P2;SDS_P1;SDS_P2;PMS_P1;PMS_P2;Temp;Humidity;BMP_temperature;BMP_pressure;BME280_temperature;BME280_humidity;BME280_pressure;Samples;Min_cycle;Max_cycle;Signal;HPM_P1;HPM_P2
2022/08/11 00:00:07;;;;;;;3.43;2.00;;;;;;;;;;5024284;28;20185;-86
2022/08/11 00:03:13;;;;;;;2.77;2.00;;;;;;;;;;5035963;28;20173;-86
2022/08/11 00:06:30;;;;;;;5.63;2.00;;;;;;;;;;5044612;28;20571;-86
2022/08/11 00:09:37;;;;;;;3.77;2.23;;;;;;;;;;5045495;28;20177;-86
2022/08/11 00:12:43;;;;;;;5.30;2.40;;;;;;;;;;5044585;28;20176;-86
2022/08/11 00:15:47;;;;;;;3.03;2.10;;;;;;;;;;5066499;28;20216;-86
2022/08/11 00:18:54;;;;;;;3.37;1.90;;;;;;;;;;5015686;28;20174;-86
2022/08/11 00:22:00;;;;;;;5.20;2.00;;;;;;;;;;5015533;28;20205;-85
2022/08/11 00:25:12;;;;;;;5.00;2.40;;;;;;;;;;5004239;28;20233;-87
2022/08/11 00:28:22;;;;;;;2.00;1.77;;;;;;;;;;4993010;28;20186;-87
2022/08/11 00:31:30;;;;;;;2.50;2.23;;;;;;;;;;5004134;28;20629;-87
2022/08/11 00:34:37;;;;;;;5.10;2.17;;;;;;;;;;5003762;28;20182;-87
2022/08/11 00:37:48;;;;;;;3.33;2.00;;;;;;;;;;5015116;28;20169;-87
2022/08/11 00:40:52;;;;;;;3.93;2.00;;;;;;;;;;5003459;28;20517;-88
2022/08/11 00:44:30;;;;;;;3.30;1.77;;;;;;;;;;5010566;28;20196;-87
2022/08/11 00:47:40;;;;;;;7.33;2.63;;;;;;;;;;5034735;28;20201;-87
2022/08/11 00:51:12;;;;;;;3.30;2.20;;;;;;;;;;5034349;28;20200;-87
2022/08/11 00:54:42;;;;;;;5.67;2.27;;;;;;;;;;5022962;28;20181;-87
2022/08/11 00:58:27;;;;;;;2.60;2.07;;;;;;;;;;5022810;28;20200;-88
2022/08/11 01:02:00;;;;;;;4.53;2.30;;;;;;;;;;5022591;28;20205;-87
2022/08/11 01:05:33;;;;;;;2.50;2.00;;;;;;;;;;5033954;28;20217;-87
2022/08/11 01:09:14;;;;;;;2.40;2.10;;;;;;;;;;5014594;28;20193;-86
2022/08/11 01:12:38;;;;;;;3.60;1.80;;;;;;;;;;5023340;28;20177;-86
2022/08/11 01:16:19;;;;;;;6.10;2.23;;;;;;;;;;5034529;28;20217;-86
2022/08/11 01:20:06;;;;;;;4.07;2.27;;;;;;;;;;5022844;28;20181;-86
2022/08/11 01:23:35;;;;;;;3.07;2.43;;;;;;;;;;4960080;28;20214;-86
2022/08/11 01:26:42;;;;;;;4.10;2.30;;;;;;;;;;4978704;28;20228;-86
2022/08/11 01:30:24;;;;;;;6.87;2.50;;;;;;;;;;5023127;28;20181;-86
2022/08/11 01:34:03;;;;;;;4.37;2.10;;;;;;;;;;5022580;28;20185;-86
2022/08/11 01:37:42;;;;;;;2.33;2.10;;;;;;;;;;5034131;28;20177;-86
2022/08/11 01:40:52;;;;;;;5.03;2.20;;;;;;;;;;5011174;28;20181;-86
2022/08/11 01:47:56;;;;;;;3.60;2.13;;;;;;;;;;5034597;28;20647;-86
2022/08/11 01:51:44;;;;;;;4.63;2.50;;;;;;;;;;5033855;28;20529;-86
2022/08/11 01:55:10;;;;;;;3.37;2.10;;;;;;;;;;5024721;28;20217;-86
2022/08/11 01:58:32;;;;;;;3.67;2.20;;;;;;;;;;5025459;28;20181;-86
2022/08/11 02:02:44;;;;;;;4.13;2.17;;;;;;;;;;5003296;28;20660;-86
2022/08/11 02:09:46;;;;;;;5.00;2.27;;;;;;;;;;5020734;28;20188;-86
2022/08/11 02:12:59;;;;;;;5.27;2.00;;;;;;;;;;5042206;28;20508;-86
2022/08/11 02:16:32;;;;;;;3.80;2.00;;;;;;;;;;5013860;28;20225;-86
2022/08/11 02:23:46;;;;;;;2.50;2.23;;;;;;;;;;5013669;28;20209;-86
2022/08/11 02:27:00;;;;;;;4.00;2.20;;;;;;;;;;5025141;28;20629;-86
2022/08/11 02:30:08;;;;;;;7.23;2.57;;;;;;;;;;5024839;28;20181;-86
2022/08/11 02:33:23;;;;;;;4.47;2.43;;;;;;;;;;5028564;28;20200;-86
2022/08/11 02:36:43;;;;;;;3.00;2.20;;;;;;;;;;5033485;28;20217;-86
2022/08/11 02:39:56;;;;;;;3.17;2.33;;;;;;;;;;5033341;28;20185;-86
2022/08/11 02:43:43;;;;;;;9.37;2.90;;;;;;;;;;5032859;28;20208;-86
2022/08/11 02:46:57;;;;;;;2.53;2.33;;;;;;;;;;5039190;28;20185;-86
2022/08/11 02:50:24;;;;;;;5.07;2.23;;;;;;;;;;5021574;28;20196;-85
2022/08/11 02:53:39;;;;;;;3.77;2.30;;;;;;;;;;5037363;28;20180;-86
2022/08/11 02:57:11;;;;;;;7.97;3.03;;;;;;;;;;5040775;28;20216;-85
2022/08/11 03:00:17;;;;;;;89.03;7.43;;;;;;;;;;5022458;28;20177;-86
2022/08/11 03:23:16;;;;;;;12.20;3.40;;;;;;;;;;5116854;28;20174;-85
2022/08/11 03:26:46;;;;;;;7.97;3.00;;;;;;;;;;5086571;28;20213;-86
2022/08/11 03:30:08;;;;;;;5.90;2.73;;;;;;;;;;5098441;28;20537;-85
2022/08/11 03:37:47;;;;;;;3.27;2.80;;;;;;;;;;5086834;28;20182;-86
2022/08/11 03:44:54;;;;;;;7.83;2.80;;;;;;;;;;5079369;28;20656;-85
2022/08/11 03:48:07;;;;;;;5.63;2.80;;;;;;;;;;5075155;28;20207;-85
2022/08/11 03:51:21;;;;;;;3.60;2.47;;;;;;;;;;5086350;28;20175;-86
2022/08/11 03:55:00;;;;;;;4.63;2.83;;;;;;;;;;5086611;28;20186;-85
2022/08/11 03:58:45;;;;;;;4.37;2.90;;;;;;;;;;5025892;28;20202;-85
2022/08/11 04:02:12;;;;;;;5.80;3.03;;;;;;;;;;5086141;28;20198;-86
2022/08/11 04:05:35;;;;;;;7.97;3.27;;;;;;;;;;5074843;28;20220;-86
2022/08/11 04:08:54;;;;;;;5.73;3.07;;;;;;;;;;5077372;28;20220;-85
2022/08/11 04:12:02;;;;;;;5.87;2.97;;;;;;;;;;5070397;28;20206;-86
2022/08/11 04:19:01;;;;;;;4.70;2.93;;;;;;;;;;5090970;28;20171;-85
2022/08/11 04:22:39;;;;;;;4.83;3.50;;;;;;;;;;5072577;28;20176;-86
2022/08/11 04:25:55;;;;;;;7.03;3.00;;;;;;;;;;5084232;28;20562;-86
2022/08/11 04:29:13;;;;;;;9.70;3.20;;;;;;;;;;5083691;28;20194;-85
2022/08/11 04:32:55;;;;;;;7.57;3.10;;;;;;;;;;5083787;28;20183;-86
2022/08/11 04:37:30;;;;;;;4.63;3.10;;;;;;;;;;5083804;28;20210;-86
2022/08/11 04:40:12;;;;;;;4.57;3.00;;;;;;;;;;5072260;28;20194;-86
2022/08/11 04:43:58;;;;;;;5.13;2.70;;;;;;;;;;5051956;28;20191;-86
2022/08/11 05:01:39;;;;;;;5.40;3.33;;;;;;;;;;5044154;28;20560;-85
2022/08/11 05:02:53;;;;;;;6.47;2.93;;;;;;;;;;5070534;28;20242;-82
2022/08/11 05:06:14;;;;;;;8.73;3.53;;;;;;;;;;5056748;28;20227;-83
2022/08/11 05:09:22;;;;;;;5.60;3.27;;;;;;;;;;5075319;28;20171;-83
2022/08/11 05:12:48;;;;;;;7.57;3.23;;;;;;;;;;5065477;28;20195;-83
2022/08/11 05:36:42;;;;;;;3.37;2.90;;;;;;;;;;5053005;28;20640;-83
2022/08/11 05:56:58;;;;;;;6.83;3.17;;;;;;;;;;5051371;28;20180;-89
2022/08/11 06:00:10;;;;;;;4.33;2.77;;;;;;;;;;5049723;28;20175;-88
2022/08/11 06:03:26;;;;;;;8.17;2.93;;;;;;;;;;5061848;28;20175;-87
2022/08/11 06:06:31;;;;;;;11.87;3.07;;;;;;;;;;5061448;28;20215;-88
2022/08/11 06:09:49;;;;;;;7.27;2.80;;;;;;;;;;5061632;28;20179;-87
2022/08/11 06:12:56;;;;;;;11.33;3.07;;;;;;;;;;5079899;28;20190;-87
2022/08/11 06:16:00;;;;;;;36.60;4.50;;;;;;;;;;5058931;28;20214;-88
2022/08/11 06:19:05;;;;;;;6.20;2.80;;;;;;;;;;5070687;28;20167;-88
2022/08/11 06:22:12;;;;;;;8.83;3.00;;;;;;;;;;5059533;28;20179;-87
2022/08/11 06:25:16;;;;;;;5.40;2.60;;;;;;;;;;5058715;28;20219;-87
2022/08/11 06:28:31;;;;;;;5.67;2.50;;;;;;;;;;5058639;28;20211;-88
2022/08/11 06:31:35;;;;;;;5.10;3.43;;;;;;;;;;5050674;28;20191;-89
2022/08/11 06:35:10;;;;;;;10.57;2.80;;;;;;;;;;5042994;28;20534;-88
2022/08/11 06:38:45;;;;;;;5.43;2.50;;;;;;;;;;5081451;28;20629;-87
2022/08/11 06:42:02;;;;;;;4.20;2.83;;;;;;;;;;5081055;28;20178;-88
2022/08/11 06:45:27;;;;;;;10.10;3.10;;;;;;;;;;5060234;28;20566;-88
2022/08/11 06:48:32;;;;;;;43.80;4.47;;;;;;;;;;5069339;28;20218;-88
2022/08/11 06:51:37;;;;;;;8.17;2.90;;;;;;;;;;5070044;28;20511;-89
2022/08/11 06:55:04;;;;;;;6.53;2.33;;;;;;;;;;5049820;28;20219;-89
2022/08/11 07:01:45;;;;;;;104.53;6.50;;;;;;;;;;5049960;28;20183;-89
2022/08/11 07:05:00;;;;;;;5.57;2.60;;;;;;;;;;5072043;28;20215;-89
2022/08/11 07:15:40;;;;;;;9.97;3.00;;;;;;;;;;5060780;28;20223;-88
2022/08/11 07:29:01;;;;;;;5.97;3.07;;;;;;;;;;5049625;28;20215;-89
2022/08/11 07:32:13;;;;;;;5.33;2.60;;;;;;;;;;5061123;28;20179;-89
2022/08/11 07:35:29;;;;;;;5.93;2.37;;;;;;;;;;5037986;28;20215;-89
2022/08/11 07:38:43;;;;;;;18.53;3.43;;;;;;;;;;5049895;28;20523;-90
2022/08/11 07:41:50;;;;;;;13.03;2.93;;;;;;;;;;5049302;28;20290;-89
2022/08/11 07:55:12;;;;;;;10.13;2.27;;;;;;;;;;5063990;28;20219;-89
2022/08/11 08:18:40;;;;;;;3.27;2.33;;;;;;;;;;5063642;28;20625;-89
2022/08/11 08:21:45;;;;;;;13.77;2.30;;;;;;;;;;5052462;28;20190;-89
2022/08/11 08:24:50;;;;;;;3.33;1.97;;;;;;;;;;5040987;28;20216;-89
2022/08/11 08:27:56;;;;;;;2.30;2.00;;;;;;;;;;5052459;28;20199;-89
2022/08/11 08:31:01;;;;;;;27.63;2.40;;;;;;;;;;5052215;28;20180;-89
2022/08/11 08:34:11;;;;;;;13.87;3.23;;;;;;;;;;5041213;28;20178;-90
2022/08/11 08:37:28;;;;;;;4.10;2.10;;;;;;;;;;5052255;28;20185;-90
2022/08/11 08:40:32;;;;;;;8.02;1.90;;;;;;;;;;5063578;28;20185;-88
2022/08/11 08:43:37;;;;;;;35.30;3.10;;;;;;;;;;5051958;28;20180;-89
2022/08/11 08:46:44;;;;;;;17.15;2.45;;;;;;;;;;5040297;28;20703;-89
2022/08/11 08:49:54;;;;;;;15.25;2.58;;;;;;;;;;5078878;28;20207;-89
2022/08/11 08:53:04;;;;;;;71.85;4.40;;;;;;;;;;5072146;28;20184;-89
2022/08/11 08:56:08;;;;;;;193.65;13.75;;;;;;;;;;5069951;28;20570;-89
2022/08/11 08:59:14;;;;;;;6.28;1.90;;;;;;;;;;5060707;28;20189;-89
2022/08/11 09:02:24;;;;;;;7.13;1.75;;;;;;;;;;5057826;28;20186;-88
2022/08/11 09:05:28;;;;;;;13.48;2.25;;;;;;;;;;5052686;28;20210;-89
2022/08/11 09:08:34;;;;;;;36.75;3.55;;;;;;;;;;5040668;28;20682;-89
2022/08/11 09:11:49;;;;;;;10.15;2.30;;;;;;;;;;5039808;28;20194;-89
2022/08/11 09:15:03;;;;;;;7.70;2.33;;;;;;;;;;5049674;28;20228;-89
2022/08/11 09:18:10;;;;;;;3.08;1.83;;;;;;;;;;5052004;28;20628;-87
2022/08/11 09:21:16;;;;;;;2.22;1.58;;;;;;;;;;5051667;28;20195;-88
2022/08/11 09:27:42;;;;;;;5.38;1.77;;;;;;;;;;5062637;28;20633;-90
2022/08/11 09:30:52;;;;;;;8.25;2.00;;;;;;;;;;5051373;28;20179;-90
2022/08/11 09:33:57;;;;;;;9.45;2.10;;;;;;;;;;5040604;28;20538;-90
2022/08/11 09:40:29;;;;;;;7.43;2.05;;;;;;;;;;5062355;28;20182;-89
2022/08/11 09:47:14;;;;;;;9.57;1.83;;;;;;;;;;5050796;28;20182;-90
2022/08/11 09:50:18;;;;;;;42.83;3.95;;;;;;;;;;5061861;28;20216;-89
2022/08/11 09:53:26;;;;;;;3.75;1.70;;;;;;;;;;5050558;28;20188;-89
2022/08/11 09:59:54;;;;;;;2.47;1.60;;;;;;;;;;5062034;28;20183;-90
2022/08/11 10:03:01;;;;;;;4.97;1.63;;;;;;;;;;5066018;28;20187;-90
2022/08/11 10:09:39;;;;;;;2.83;1.80;;;;;;;;;;5062173;28;20208;-91
2022/08/11 10:12:48;;;;;;;7.28;1.80;;;;;;;;;;5050652;28;20178;-90
2022/08/11 10:15:57;;;;;;;2.47;1.33;;;;;;;;;;5049883;28;20207;-90
2022/08/11 10:19:03;;;;;;;2.00;1.80;;;;;;;;;;5040641;28;20653;-91
2022/08/11 10:28:53;;;;;;;5.07;2.70;;;;;;;;;;5073917;28;20208;-91
2022/08/11 10:35:25;;;;;;;3.35;1.75;;;;;;;;;;5061288;28;20216;-89
2022/08/11 10:38:29;;;;;;;3.17;1.58;;;;;;;;;;5050060;28;20180;-89
2022/08/11 10:45:00;;;;;;;2.10;1.60;;;;;;;;;;5070017;28;20678;-89
2022/08/11 10:48:06;;;;;;;1.60;1.40;;;;;;;;;;5070577;28;20183;-89
2022/08/11 10:51:13;;;;;;;5.85;1.80;;;;;;;;;;5038714;28;20179;-88
2022/08/11 11:01:08;;;;;;;2.22;1.55;;;;;;;;;;5061332;28;20176;-88
2022/08/11 11:04:15;;;;;;;2.03;1.50;;;;;;;;;;5049763;28;20639;-88
2022/08/11 11:07:29;;;;;;;1.77;1.67;;;;;;;;;;5049558;28;20203;-88
2022/08/11 11:10:34;;;;;;;2.45;1.67;;;;;;;;;;5060742;28;20244;-88
2022/08/11 11:20:53;;;;;;;4.00;1.48;;;;;;;;;;5045202;23;20229;-84
2022/08/11 11:24:40;;;;;;;3.75;1.60;;;;;;;;;;5008235;28;20185;-84
2022/08/11 11:28:23;;;;;;;3.03;1.48;;;;;;;;;;5004256;28;20181;-84
2022/08/11 11:31:50;;;;;;;1.65;1.25;;;;;;;;;;4985245;28;20186;-84
2022/08/11 11:35:15;;;;;;;38.22;3.45;;;;;;;;;;4992203;28;20641;-84
2022/08/11 11:38:19;;;;;;;4.30;1.42;;;;;;;;;;4966861;28;20183;-84
2022/08/11 11:41:24;;;;;;;2.63;1.50;;;;;;;;;;4966657;28;20178;-83
2022/08/11 11:44:30;;;;;;;3.38;1.70;;;;;;;;;;4976420;28;20190;-84
2022/08/11 11:47:36;;;;;;;1.80;1.50;;;;;;;;;;4976500;28;20621;-84
2022/08/11 11:50:41;;;;;;;11.07;1.70;;;;;;;;;;4987500;28;20206;-84
2022/08/11 11:53:46;;;;;;;3.65;1.65;;;;;;;;;;4965318;28;20672;-84
2022/08/11 11:56:52;;;;;;;3.83;1.60;;;;;;;;;;4964651;28;20202;-84
2022/08/11 12:03:19;;;;;;;4.43;1.60;;;;;;;;;;4975142;28;20191;-83
2022/08/11 12:06:26;;;;;;;9.02;2.08;;;;;;;;;;4985571;28;20189;-83
2022/08/11 12:09:30;;;;;;;1.58;1.40;;;;;;;;;;5017402;28;20209;-83
2022/08/11 12:16:02;;;;;;;2.40;1.58;;;;;;;;;;4994675;28;20526;-83
2022/08/11 12:19:13;;;;;;;2.25;1.30;;;;;;;;;;4994129;28;20708;-83
2022/08/11 12:29:09;;;;;;;3.33;1.40;;;;;;;;;;5005912;28;20218;-84
2022/08/11 12:32:13;;;;;;;7.05;1.65;;;;;;;;;;4995100;28;20178;-83
2022/08/11 12:35:17;;;;;;;1.88;1.20;;;;;;;;;;5005488;28;20185;-84
2022/08/11 12:38:22;;;;;;;4.15;1.50;;;;;;;;;;5005544;28;20182;-84
2022/08/11 12:51:57;;;;;;;1.60;1.40;;;;;;;;;;4975034;28;20175;-83
2022/08/11 12:55:09;;;;;;;3.15;1.38;;;;;;;;;;4974869;28;20174;-84
2022/08/11 12:58:15;;;;;;;12.57;1.92;;;;;;;;;;4998206;28;20519;-83
2022/08/11 13:04:55;;;;;;;318.02;17.23;;;;;;;;;;4985808;28;20183;-83
2022/08/11 13:08:00;;;;;;;1.55;1.30;;;;;;;;;;4975133;28;20577;-83
2022/08/11 13:14:31;;;;;;;2.03;1.35;;;;;;;;;;4986354;28;20183;-83
2022/08/11 13:17:37;;;;;;;11.18;2.10;;;;;;;;;;4975901;28;20183;-83
2022/08/11 13:20:43;;;;;;;1.90;1.27;;;;;;;;;;4985880;28;20217;-84
2022/08/11 13:23:53;;;;;;;1.73;1.08;;;;;;;;;;4985790;28;20179;-83
2022/08/11 13:26:57;;;;;;;1.73;1.10;;;;;;;;;;4981830;28;20210;-84
2022/08/11 13:33:26;;;;;;;4.75;1.30;;;;;;;;;;4974283;28;20198;-83
2022/08/11 13:36:30;;;;;;;2.45;1.60;;;;;;;;;;4985276;28;20175;-82
2022/08/11 13:39:36;;;;;;;47.42;3.58;;;;;;;;;;4985402;28;20222;-83
2022/08/11 13:42:40;;;;;;;25.73;1.92;;;;;;;;;;4974602;28;20183;-83
2022/08/11 13:45:46;;;;;;;69.53;4.50;;;;;;;;;;4973967;28;20182;-83
2022/08/11 13:48:53;;;;;;;4.22;1.30;;;;;;;;;;4984931;28;20194;-84
2022/08/11 13:51:58;;;;;;;5.60;1.50;;;;;;;;;;4974661;28;20202;-83
2022/08/11 13:55:04;;;;;;;2.53;1.20;;;;;;;;;;4984794;28;20187;-83
2022/08/11 13:58:10;;;;;;;2.88;1.15;;;;;;;;;;4987524;28;20234;-84
2022/08/11 14:01:14;;;;;;;1.92;1.30;;;;;;;;;;4981722;28;20206;-84
2022/08/11 14:04:39;;;;;;;5.18;1.40;;;;;;;;;;4982335;28;20340;-84
2022/08/11 14:07:58;;;;;;;2.05;1.27;;;;;;;;;;4984753;28;20195;-84
2022/08/11 14:14:32;;;;;;;46.15;2.92;;;;;;;;;;4995776;28;20179;-84
2022/08/11 14:17:39;;;;;;;2.92;1.30;;;;;;;;;;5009391;28;20206;-83
2022/08/11 14:24:12;;;;;;;12.48;1.88;;;;;;;;;;4992594;28;20640;-83
2022/08/11 14:27:17;;;;;;;60.45;4.20;;;;;;;;;;4986521;28;20191;-83
2022/08/11 14:33:45;;;;;;;2.72;1.40;;;;;;;;;;4990976;28;20193;-82
2022/08/11 14:36:55;;;;;;;2.65;1.25;;;;;;;;;;4981455;28;20529;-84
2022/08/11 14:47:03;;;;;;;9.32;1.77;;;;;;;;;;5002048;28;20234;-84
2022/08/11 14:47:04;;;;;;;48.05;3.50;;;;;;;;;;5003484;28;20201;-84
2022/08/11 14:50:16;;;;;;;11.70;1.55;;;;;;;;;;4988584;28;20685;-84
2022/08/11 14:53:21;;;;;;;29.40;3.22;;;;;;;;;;4991402;28;20201;-84
2022/08/11 14:56:35;;;;;;;4.55;1.30;;;;;;;;;;4961754;28;20186;-84
2022/08/11 14:59:42;;;;;;;15.43;2.03;;;;;;;;;;4982375;28;20217;-81
2022/08/11 15:03:09;;;;;;;2.95;1.45;;;;;;;;;;4990453;28;20185;-84
2022/08/11 15:06:39;;;;;;;51.00;3.30;;;;;;;;;;4998715;28;20191;-83
2022/08/11 15:09:44;;;;;;;2.70;1.20;;;;;;;;;;4979541;28;20214;-83
2022/08/11 15:12:48;;;;;;;2.33;1.27;;;;;;;;;;4979977;28;20543;-83
2022/08/11 15:19:19;;;;;;;3.35;1.20;;;;;;;;;;5005617;28;20599;-84
2022/08/11 15:25:55;;;;;;;66.90;4.00;;;;;;;;;;5007011;28;20182;-83
2022/08/11 15:39:19;;;;;;;6.90;1.40;;;;;;;;;;4992423;28;20221;-84
2022/08/11 15:45:49;;;;;;;2.13;1.10;;;;;;;;;;5015044;28;20184;-84
2022/08/11 15:49:10;;;;;;;6.00;1.30;;;;;;;;;;5002484;28;20179;-85
2022/08/11 15:52:20;;;;;;;1.88;1.20;;;;;;;;;;5002641;28;20187;-84
2022/08/11 15:55:24;;;;;;;2.30;1.33;;;;;;;;;;4992031;28;20627;-84
2022/08/11 16:05:21;;;;;;;1.42;1.10;;;;;;;;;;4983851;28;20184;-83
2022/08/11 16:08:26;;;;;;;93.05;6.05;;;;;;;;;;4972097;28;20192;-84
2022/08/11 16:11:33;;;;;;;3.30;1.30;;;;;;;;;;4983597;28;20184;-84
2022/08/11 16:18:08;;;;;;;3.72;1.40;;;;;;;;;;4980015;28;20186;-86
2022/08/11 16:21:37;;;;;;;1.85;1.63;;;;;;;;;;4982098;28;20210;-85
2022/08/11 16:24:45;;;;;;;566.85;37.15;;;;;;;;;;4983883;28;20192;-86
2022/08/11 16:27:55;;;;;;;8.15;1.73;;;;;;;;;;5007308;28;20186;-84
2022/08/11 16:31:00;;;;;;;6.18;1.27;;;;;;;;;;5006521;28;20553;-84
2022/08/11 16:38:33;;;;;;;4.72;1.67;;;;;;;;;;4996552;28;20182;-84
2022/08/11 16:40:58;;;;;;;1.73;1.50;;;;;;;;;;5006730;28;20236;-84
2022/08/11 16:47:26;;;;;;;22.00;2.80;;;;;;;;;;5011099;28;20182;-85
2022/08/11 16:50:31;;;;;;;13.30;1.90;;;;;;;;;;4978398;28;20559;-86
2022/08/11 16:53:37;;;;;;;2.40;1.33;;;;;;;;;;4969036;28;20179;-85
2022/08/11 16:56:49;;;;;;;3.20;1.30;;;;;;;;;;4989278;28;20177;-86
2022/08/11 16:59:57;;;;;;;2.77;1.50;;;;;;;;;;5011276;28;20221;-84
2022/08/11 17:13:14;;;;;;;4.40;1.63;;;;;;;;;;4994845;28;20178;-85
2022/08/11 17:16:28;;;;;;;14.53;2.30;;;;;;;;;;4995995;28;20181;-86
2022/08/11 17:19:33;;;;;;;3.00;1.60;;;;;;;;;;4991429;28;20235;-85
2022/08/11 17:26:01;;;;;;;3.63;1.77;;;;;;;;;;4994516;28;20637;-84
2022/08/11 17:29:06;;;;;;;2.30;1.10;;;;;;;;;;4996053;28;20223;-85
2022/08/11 17:35:40;;;;;;;3.40;1.90;;;;;;;;;;4994870;28;20197;-84
2022/08/11 17:38:46;;;;;;;16.10;2.57;;;;;;;;;;4995788;28;20184;-84
2022/08/11 17:48:42;;;;;;;4.70;1.40;;;;;;;;;;4994136;28;20178;-85
2022/08/11 18:05:29;;;;;;;8.93;1.53;;;;;;;;;;4986429;28;20222;-84
